N122PC FBJW-FAOR
Flight info
| Callsign | N122PC |
|---|---|
| Flight time | 1h 8m |
| Altitude | 5500 |
| Route | VFR |
| Aircraft | AEST/L-SDFRY/C |
Departure
| Time | 2025-07-06 09:46 |
|---|---|
| Airport | Jwaneng Airport (FBJW) |
Arrival
| Time | 2025-07-06 10:54 |
|---|---|
| Airport | O.R. Tambo International Airport (FAOR) |
| Time | Latitude | Longitude | Altitude | Speed | Heading |
|---|---|---|---|---|---|
| 2025-07-06 09:29 | -24.60003 | 24.69925 | 3897 ft | 0 kts | 246° |
| 2025-07-06 09:32 | -24.60004 | 24.69924 | 3897 ft | 0 kts | 246° |
| 2025-07-06 09:33 | -24.60006 | 24.69920 | 3902 ft | 0 kts | 246° |
| 2025-07-06 09:35 | -24.60003 | 24.69942 | 3897 ft | 2 kts | 286° |
| 2025-07-06 09:36 | -24.60011 | 24.69954 | 3895 ft | 0 kts | 328° |
| 2025-07-06 09:41 | -24.60003 | 24.69952 | 3899 ft | 3 kts | 20° |
| 2025-07-06 09:41 | -24.60002 | 24.69977 | 3897 ft | 6 kts | 88° |
| 2025-07-06 09:42 | -24.59993 | 24.69990 | 3897 ft | 0 kts | 20° |
| 2025-07-06 09:43 | -24.59912 | 24.69954 | 3897 ft | 11 kts | 334° |
| 2025-07-06 09:43 | -24.59814 | 24.69893 | 3897 ft | 7 kts | 297° |
| 2025-07-06 09:44 | -24.59872 | 24.69729 | 3897 ft | 50 kts | 245° |
| 2025-07-06 09:44 | -24.60421 | 24.68449 | 3954 ft | 121 kts | 250° |
| 2025-07-06 09:45 | -24.61248 | 24.66840 | 4396 ft | 136 kts | 216° |
| 2025-07-06 09:45 | -24.62918 | 24.67523 | 4959 ft | 152 kts | 116° |
| 2025-07-06 09:45 | -24.63073 | 24.68667 | 5270 ft | 154 kts | 81° |
| 2025-07-06 09:46 | -24.62818 | 24.71094 | 5620 ft | 176 kts | 82° |
| 2025-07-06 09:47 | -24.62552 | 24.75498 | 5850 ft | 204 kts | 83° |
| 2025-07-06 09:47 | -24.62243 | 24.80450 | 5660 ft | 223 kts | 85° |
| 2025-07-06 09:48 | -24.62177 | 24.82161 | 5639 ft | 226 kts | 87° |
| 2025-07-06 09:48 | -24.61917 | 24.85563 | 5713 ft | 223 kts | 75° |
| 2025-07-06 09:49 | -24.61341 | 24.88963 | 5639 ft | 228 kts | 77° |
| 2025-07-06 09:49 | -24.60833 | 24.92394 | 5653 ft | 228 kts | 79° |
| 2025-07-06 09:50 | -24.60510 | 24.95868 | 5652 ft | 229 kts | 83° |
| 2025-07-06 09:50 | -24.60427 | 24.97623 | 5644 ft | 231 kts | 86° |
| 2025-07-06 09:50 | -24.60424 | 25.01158 | 5643 ft | 228 kts | 90° |
| 2025-07-06 09:51 | -24.60938 | 25.08029 | 5641 ft | 226 kts | 94° |
| 2025-07-06 09:52 | -24.61082 | 25.09722 | 5644 ft | 225 kts | 92° |
| 2025-07-06 09:52 | -24.61268 | 25.13174 | 5643 ft | 227 kts | 89° |
| 2025-07-06 09:53 | -24.61291 | 25.16646 | 5648 ft | 227 kts | 86° |
| 2025-07-06 09:53 | -24.61191 | 25.20093 | 5641 ft | 223 kts | 84° |
| 2025-07-06 09:54 | -24.61075 | 25.23519 | 5642 ft | 226 kts | 85° |
| 2025-07-06 09:54 | -24.60953 | 25.26930 | 5640 ft | 224 kts | 85° |
| 2025-07-06 09:55 | -24.60827 | 25.30334 | 5647 ft | 220 kts | 85° |
| 2025-07-06 09:55 | -24.60621 | 25.35351 | 5646 ft | 217 kts | 85° |
| 2025-07-06 09:56 | -24.60546 | 25.37004 | 5641 ft | 216 kts | 85° |
| 2025-07-06 09:56 | -24.60398 | 25.40327 | 5639 ft | 217 kts | 85° |
| 2025-07-06 09:57 | -24.60255 | 25.43678 | 5552 ft | 221 kts | 85° |
| 2025-07-06 09:57 | -24.60114 | 25.47057 | 5503 ft | 223 kts | 85° |
| 2025-07-06 09:58 | -24.59962 | 25.50429 | 5462 ft | 221 kts | 85° |
| 2025-07-06 09:58 | -24.59807 | 25.53822 | 5412 ft | 222 kts | 85° |
| 2025-07-06 09:59 | -24.59659 | 25.57210 | 5367 ft | 221 kts | 85° |
| 2025-07-06 09:59 | -24.59502 | 25.60603 | 5336 ft | 224 kts | 85° |
| 2025-07-06 09:59 | -24.59416 | 25.62320 | 5310 ft | 225 kts | 86° |
| 2025-07-06 10:00 | -24.61087 | 25.66978 | 5225 ft | 222 kts | 131° |
| 2025-07-06 10:01 | -24.63037 | 25.69572 | 5239 ft | 220 kts | 129° |
| 2025-07-06 10:01 | -24.64605 | 25.72446 | 5176 ft | 221 kts | 103° |
| 2025-07-06 10:01 | -24.64765 | 25.74108 | 5184 ft | 219 kts | 88° |
| 2025-07-06 10:02 | -24.64681 | 25.79129 | 5161 ft | 219 kts | 97° |
| 2025-07-06 10:03 | -24.65859 | 25.82191 | 5133 ft | 222 kts | 127° |
| 2025-07-06 10:03 | -24.68890 | 25.85924 | 5199 ft | 219 kts | 135° |
| 2025-07-06 10:04 | -24.69943 | 25.87173 | 5167 ft | 222 kts | 132° |
| 2025-07-06 10:04 | -24.71781 | 25.89868 | 5202 ft | 220 kts | 123° |
| 2025-07-06 10:05 | -24.73358 | 25.92737 | 5205 ft | 220 kts | 122° |
| 2025-07-06 10:05 | -24.74148 | 25.94178 | 5222 ft | 219 kts | 121° |
| 2025-07-06 10:05 | -24.75684 | 25.97068 | 5200 ft | 219 kts | 120° |
| 2025-07-06 10:06 | -24.77099 | 26.00025 | 5209 ft | 217 kts | 120° |
| 2025-07-06 10:07 | -24.79600 | 26.04153 | 5189 ft | 215 kts | 111° |
| 2025-07-06 10:07 | -24.80161 | 26.05672 | 5243 ft | 214 kts | 109° |
| 2025-07-06 10:08 | -24.81178 | 26.10450 | 5239 ft | 214 kts | 100° |
| 2025-07-06 10:08 | -24.81718 | 26.13678 | 5223 ft | 215 kts | 97° |
| 2025-07-06 10:09 | -24.82014 | 26.16410 | 5201 ft | 215 kts | 97° |
| 2025-07-06 10:09 | -24.82305 | 26.18022 | 5156 ft | 214 kts | 101° |
| 2025-07-06 10:10 | -24.83288 | 26.22811 | 5159 ft | 214 kts | 100° |
| 2025-07-06 10:10 | -24.83890 | 26.26013 | 5166 ft | 214 kts | 101° |
| 2025-07-06 10:11 | -24.84398 | 26.29284 | 5198 ft | 218 kts | 94° |
| 2025-07-06 10:11 | -24.84907 | 26.34273 | 5234 ft | 218 kts | 99° |
| 2025-07-06 10:12 | -24.85311 | 26.37575 | 5286 ft | 219 kts | 91° |
| 2025-07-06 10:12 | -24.85300 | 26.39250 | 5295 ft | 219 kts | 83° |
| 2025-07-06 10:13 | -24.84488 | 26.42442 | 5272 ft | 217 kts | 58° |
| 2025-07-06 10:13 | -24.83460 | 26.45445 | 5229 ft | 215 kts | 95° |
| 2025-07-06 10:14 | -24.84676 | 26.48427 | 5277 ft | 214 kts | 121° |
| 2025-07-06 10:14 | -24.86230 | 26.51230 | 5329 ft | 215 kts | 121° |
| 2025-07-06 10:15 | -24.87703 | 26.54122 | 5362 ft | 216 kts | 116° |
| 2025-07-06 10:15 | -24.89400 | 26.58642 | 5397 ft | 211 kts | 105° |
| 2025-07-06 10:16 | -24.89710 | 26.60222 | 5368 ft | 212 kts | 102° |
| 2025-07-06 10:16 | -24.90499 | 26.63367 | 5397 ft | 213 kts | 109° |
| 2025-07-06 10:17 | -24.91700 | 26.66365 | 5559 ft | 212 kts | 114° |
| 2025-07-06 10:17 | -24.92860 | 26.69367 | 5675 ft | 216 kts | 112° |
| 2025-07-06 10:17 | -24.93437 | 26.70908 | 5726 ft | 218 kts | 111° |
| 2025-07-06 10:18 | -24.95167 | 26.75588 | 5779 ft | 228 kts | 118° |
| 2025-07-06 10:19 | -24.96790 | 26.78642 | 5614 ft | 232 kts | 120° |
| 2025-07-06 10:19 | -24.98927 | 26.83390 | 5523 ft | 231 kts | 115° |
| 2025-07-06 10:20 | -24.99626 | 26.84976 | 5535 ft | 229 kts | 116° |
| 2025-07-06 10:20 | -25.01074 | 26.88096 | 5513 ft | 226 kts | 117° |
| 2025-07-06 10:21 | -25.02511 | 26.91149 | 5522 ft | 224 kts | 117° |
| 2025-07-06 10:21 | -25.04622 | 26.93504 | 5528 ft | 221 kts | 166° |
| 2025-07-06 10:22 | -25.07632 | 26.93974 | 5496 ft | 219 kts | 167° |
| 2025-07-06 10:22 | -25.10272 | 26.95651 | 5499 ft | 222 kts | 137° |
| 2025-07-06 10:23 | -25.12025 | 26.98453 | 5540 ft | 223 kts | 115° |
| 2025-07-06 10:23 | -25.13848 | 27.01154 | 5521 ft | 225 kts | 149° |
| 2025-07-06 10:24 | -25.16190 | 27.03316 | 5594 ft | 222 kts | 130° |
| 2025-07-06 10:24 | -25.16910 | 27.06436 | 5555 ft | 223 kts | 78° |
| 2025-07-06 10:25 | -25.17771 | 27.09579 | 5504 ft | 224 kts | 130° |
| 2025-07-06 10:25 | -25.19643 | 27.12268 | 5315 ft | 210 kts | 116° |
| 2025-07-06 10:26 | -25.21216 | 27.15103 | 5265 ft | 206 kts | 115° |
| 2025-07-06 10:26 | -25.21288 | 27.18262 | 5299 ft | 211 kts | 87° |
| 2025-07-06 10:26 | -25.21218 | 27.19900 | 5293 ft | 214 kts | 86° |
| 2025-07-06 10:27 | -25.23029 | 27.26078 | 5370 ft | 218 kts | 112° |
| 2025-07-06 10:28 | -25.23470 | 27.27672 | 5381 ft | 218 kts | 98° |
| 2025-07-06 10:28 | -25.24369 | 27.30870 | 5416 ft | 219 kts | 114° |
| 2025-07-06 10:29 | -25.25696 | 27.33871 | 5471 ft | 217 kts | 117° |
| 2025-07-06 10:29 | -25.27086 | 27.36845 | 5471 ft | 218 kts | 114° |
| 2025-07-06 10:29 | -25.27783 | 27.38337 | 5465 ft | 219 kts | 119° |
| 2025-07-06 10:30 | -25.30005 | 27.42705 | 5389 ft | 208 kts | 117° |
| 2025-07-06 10:30 | -25.30795 | 27.44095 | 5249 ft | 220 kts | 127° |
| 2025-07-06 10:31 | -25.33405 | 27.48261 | 5417 ft | 217 kts | 121° |
| 2025-07-06 10:32 | -25.34904 | 27.51190 | 5420 ft | 221 kts | 117° |
| 2025-07-06 10:32 | -25.36359 | 27.54152 | 5454 ft | 219 kts | 124° |
| 2025-07-06 10:33 | -25.37999 | 27.56985 | 5489 ft | 219 kts | 121° |
| 2025-07-06 10:33 | -25.39500 | 27.59948 | 5536 ft | 220 kts | 120° |
| 2025-07-06 10:33 | -25.40241 | 27.61385 | 5682 ft | 218 kts | 121° |
| 2025-07-06 10:34 | -25.42525 | 27.65519 | 6633 ft | 198 kts | 124° |
| 2025-07-06 10:35 | -25.43831 | 27.68047 | 7433 ft | 183 kts | 121° |
| 2025-07-06 10:35 | -25.44925 | 27.70617 | 8035 ft | 186 kts | 119° |
| 2025-07-06 10:36 | -25.46293 | 27.73279 | 8135 ft | 210 kts | 129° |
| 2025-07-06 10:36 | -25.47140 | 27.74612 | 8212 ft | 215 kts | 129° |
| 2025-07-06 10:37 | -25.49729 | 27.78999 | 8147 ft | 232 kts | 128° |
| 2025-07-06 10:37 | -25.50790 | 27.80355 | 8106 ft | 234 kts | 143° |
| 2025-07-06 10:37 | -25.53456 | 27.82358 | 8128 ft | 230 kts | 154° |
| 2025-07-06 10:38 | -25.57612 | 27.85021 | 8038 ft | 231 kts | 160° |
| 2025-07-06 10:39 | -25.60468 | 27.86621 | 8014 ft | 228 kts | 158° |
| 2025-07-06 10:39 | -25.63281 | 27.88222 | 7979 ft | 225 kts | 160° |
| 2025-07-06 10:39 | -25.64691 | 27.88989 | 7953 ft | 226 kts | 161° |
| 2025-07-06 10:40 | -25.68895 | 27.91250 | 7972 ft | 225 kts | 157° |
| 2025-07-06 10:41 | -25.71555 | 27.93075 | 8014 ft | 224 kts | 154° |
| 2025-07-06 10:41 | -25.73763 | 27.94620 | 8006 ft | 224 kts | 152° |
| 2025-07-06 10:41 | -25.75065 | 27.95577 | 8024 ft | 224 kts | 153° |
| 2025-07-06 10:42 | -25.78933 | 27.98479 | 8099 ft | 223 kts | 150° |
| 2025-07-06 10:43 | -25.81440 | 28.00562 | 8104 ft | 225 kts | 147° |
| 2025-07-06 10:43 | -25.85232 | 28.03624 | 8138 ft | 225 kts | 150° |
| 2025-07-06 10:44 | -25.86570 | 28.04520 | 8147 ft | 225 kts | 159° |
| 2025-07-06 10:44 | -25.89459 | 28.05742 | 8204 ft | 219 kts | 167° |
| 2025-07-06 10:45 | -25.92351 | 28.06746 | 8218 ft | 217 kts | 170° |
| 2025-07-06 10:45 | -25.95281 | 28.07428 | 8241 ft | 216 kts | 184° |
| 2025-07-06 10:45 | -25.96778 | 28.07462 | 8269 ft | 213 kts | 187° |
| 2025-07-06 10:46 | -26.01245 | 28.07437 | 8039 ft | 219 kts | 180° |
| 2025-07-06 10:47 | -26.03870 | 28.09107 | 8021 ft | 225 kts | 138° |
| 2025-07-06 10:47 | -26.06954 | 28.13083 | 8095 ft | 227 kts | 130° |
| 2025-07-06 10:48 | -26.07889 | 28.14507 | 8100 ft | 229 kts | 129° |
| 2025-07-06 10:48 | -26.09621 | 28.17457 | 8171 ft | 227 kts | 122° |
| 2025-07-06 10:49 | -26.10991 | 28.20625 | 8169 ft | 230 kts | 115° |
| 2025-07-06 10:49 | -26.12309 | 28.23920 | 8153 ft | 235 kts | 119° |
| 2025-07-06 10:50 | -26.13808 | 28.27082 | 8051 ft | 228 kts | 127° |
| 2025-07-06 10:50 | -26.16428 | 28.28360 | 7805 ft | 208 kts | 185° |
| 2025-07-06 10:51 | -26.19281 | 28.28393 | 7374 ft | 206 kts | 185° |
| 2025-07-06 10:51 | -26.20978 | 28.26896 | 7632 ft | 154 kts | 281° |
| 2025-07-06 10:51 | -26.20503 | 28.25858 | 7483 ft | 148 kts | 299° |
| 2025-07-06 10:52 | -26.18463 | 28.24453 | 6124 ft | 111 kts | 350° |
| 2025-07-06 10:53 | -26.16919 | 28.24681 | 5639 ft | 113 kts | 5° |
| 2025-07-06 10:53 | -26.15468 | 28.25129 | 5511 ft | 95 kts | 9° |
| 2025-07-06 10:54 | -26.14624 | 28.25302 | 5500 ft | 39 kts | 351° |
| 2025-07-06 10:54 | -26.14540 | 28.25281 | 5503 ft | 0 kts | 328° |
| 2025-07-06 10:55 | -26.14526 | 28.25267 | 5504 ft | 6 kts | 308° |
| 2025-07-06 10:55 | -26.14443 | 28.25174 | 5506 ft | 10 kts | 316° |
| 2025-07-06 10:55 | -26.14397 | 28.25127 | 5510 ft | 8 kts | 319° |
| 2025-07-06 10:56 | -26.14234 | 28.24951 | 5526 ft | 16 kts | 315° |
| 2025-07-06 10:57 | -26.14054 | 28.24754 | 5526 ft | 19 kts | 315° |
| 2025-07-06 10:57 | -26.13863 | 28.24549 | 5527 ft | 19 kts | 317° |
| 2025-07-06 10:58 | -26.13683 | 28.24353 | 5534 ft | 20 kts | 315° |
| 2025-07-06 10:58 | -26.13477 | 28.24129 | 5538 ft | 18 kts | 316° |
| 2025-07-06 10:59 | -26.13351 | 28.23993 | 5544 ft | 10 kts | 316° |
| 2025-07-06 10:59 | -26.13170 | 28.23798 | 5540 ft | 14 kts | 316° |
| 2025-07-06 11:00 | -26.13139 | 28.23749 | 5540 ft | 1 kts | 234° |
| 2025-07-06 11:01 | -26.13207 | 28.23678 | 5539 ft | 12 kts | 200° |
| 2025-07-06 11:01 | -26.13404 | 28.23615 | 5545 ft | 17 kts | 196° |
| 2025-07-06 11:02 | -26.13672 | 28.23533 | 5548 ft | 22 kts | 196° |
| 2025-07-06 11:02 | -26.13770 | 28.23370 | 5542 ft | 18 kts | 278° |
| 2025-07-06 11:03 | -26.13748 | 28.23157 | 5542 ft | 13 kts | 276° |
| 2025-07-06 11:03 | -26.13728 | 28.22944 | 5542 ft | 14 kts | 276° |
| 2025-07-06 11:04 | -26.13711 | 28.22814 | 5543 ft | 8 kts | 175° |
| 2025-07-06 11:04 | -26.13732 | 28.22809 | 5542 ft | 1 kts | 354° |